Time;durP1;ratioP1;P1;durP2;ratioP2;P2;SDS_P1;SDS_P2;PMS_P1;PMS_P2;Temp;Humidity;BMP_temperature;BMP_pressure;BME280_temperature;BME280_humidity;BME280_pressure;Samples;Min_cycle;Max_cycle;Signal;HPM_P1;HPM_P2
2024/01/29 00:01:49;;;;;;;6.13;3.45;;;;;;;;;;5057010;28;20059;-77
2024/01/29 00:04:15;;;;;;;11.43;3.80;;;;;;;;;;5068707;28;20132;-77
2024/01/29 00:06:42;;;;;;;8.73;3.80;;;;;;;;;;5077085;28;20052;-77
2024/01/29 00:09:09;;;;;;;5.18;3.38;;;;;;;;;;5087168;28;20097;-75
2024/01/29 00:11:35;;;;;;;5.82;3.58;;;;;;;;;;5076886;28;20416;-75
2024/01/29 00:14:02;;;;;;;8.23;3.80;;;;;;;;;;5081643;28;20162;-75
2024/01/29 00:16:29;;;;;;;4.25;2.97;;;;;;;;;;5091973;28;20048;-75
2024/01/29 00:18:56;;;;;;;6.50;3.53;;;;;;;;;;5093601;28;20059;-76
2024/01/29 00:21:22;;;;;;;8.00;4.15;;;;;;;;;;5089842;28;20060;-77
2024/01/29 00:23:49;;;;;;;7.32;3.55;;;;;;;;;;5077654;28;20074;-75
2024/01/29 00:26:15;;;;;;;7.03;3.95;;;;;;;;;;5091490;28;20132;-75
2024/01/29 00:28:41;;;;;;;7.95;4.43;;;;;;;;;;5068094;28;20463;-77
2024/01/29 00:31:08;;;;;;;10.02;3.70;;;;;;;;;;5094987;28;20081;-75
2024/01/29 00:33:35;;;;;;;5.72;3.15;;;;;;;;;;5108758;28;20183;-75
2024/01/29 00:36:02;;;;;;;7.35;3.72;;;;;;;;;;5105464;28;20060;-75
2024/01/29 00:38:28;;;;;;;5.78;3.67;;;;;;;;;;5104358;27;20050;-75
2024/01/29 00:40:54;;;;;;;11.82;4.43;;;;;;;;;;5088069;28;20074;-75
2024/01/29 00:43:21;;;;;;;5.80;3.30;;;;;;;;;;5083804;28;20051;-75
2024/01/29 00:45:48;;;;;;;9.70;4.38;;;;;;;;;;5086085;28;20052;-75
2024/01/29 00:48:14;;;;;;;11.63;4.28;;;;;;;;;;5058680;28;20046;-75
2024/01/29 00:50:41;;;;;;;7.55;3.85;;;;;;;;;;5087527;28;20040;-75
2024/01/29 00:53:07;;;;;;;6.32;3.65;;;;;;;;;;5085346;28;20052;-74
2024/01/29 00:55:34;;;;;;;6.55;3.80;;;;;;;;;;5073969;28;20047;-75
2024/01/29 00:58:00;;;;;;;9.10;3.83;;;;;;;;;;5089643;28;20051;-75
2024/01/29 01:00:27;;;;;;;7.07;3.80;;;;;;;;;;5093946;28;20545;-75
2024/01/29 01:02:53;;;;;;;6.65;4.35;;;;;;;;;;5069667;28;20044;-75
2024/01/29 01:05:20;;;;;;;7.22;3.83;;;;;;;;;;5093273;28;20253;-75
2024/01/29 01:07:47;;;;;;;6.57;3.88;;;;;;;;;;5065819;28;20044;-75
2024/01/29 01:10:13;;;;;;;7.97;4.15;;;;;;;;;;5085643;28;20044;-75
2024/01/29 01:12:39;;;;;;;7.53;4.13;;;;;;;;;;5065007;28;20040;-75
2024/01/29 01:15:06;;;;;;;7.47;4.00;;;;;;;;;;5070175;28;20048;-75
2024/01/29 01:17:32;;;;;;;4.57;3.13;;;;;;;;;;5073632;28;20055;-76
2024/01/29 01:19:59;;;;;;;6.18;3.50;;;;;;;;;;5081433;28;20123;-75
2024/01/29 01:22:26;;;;;;;5.90;3.88;;;;;;;;;;5096632;28;20550;-75
2024/01/29 01:24:52;;;;;;;8.88;4.20;;;;;;;;;;5098335;28;20245;-75
2024/01/29 01:27:19;;;;;;;8.63;4.00;;;;;;;;;;5104283;28;20449;-75
2024/01/29 01:29:45;;;;;;;7.28;3.85;;;;;;;;;;5069415;28;20051;-76
2024/01/29 01:32:12;;;;;;;7.20;4.07;;;;;;;;;;5093236;28;20904;-75
2024/01/29 01:34:38;;;;;;;7.38;3.80;;;;;;;;;;5090333;28;20071;-75
2024/01/29 01:37:05;;;;;;;6.70;3.90;;;;;;;;;;5068784;28;20050;-75
2024/01/29 01:39:31;;;;;;;9.40;4.40;;;;;;;;;;5094019;28;20044;-76
2024/01/29 01:41:58;;;;;;;6.28;3.55;;;;;;;;;;5090343;28;20044;-75
2024/01/29 01:44:24;;;;;;;7.93;3.53;;;;;;;;;;5102112;27;20163;-75
2024/01/29 01:46:51;;;;;;;6.88;3.88;;;;;;;;;;5079629;28;20056;-75
2024/01/29 01:49:18;;;;;;;8.80;4.20;;;;;;;;;;5065112;28;20671;-75
2024/01/29 01:51:45;;;;;;;8.40;3.95;;;;;;;;;;5082446;28;20055;-76
2024/01/29 01:54:13;;;;;;;7.05;4.10;;;;;;;;;;5093227;28;20070;-75
2024/01/29 01:56:40;;;;;;;7.25;4.20;;;;;;;;;;5118190;27;20056;-75
2024/01/29 01:59:07;;;;;;;9.65;3.83;;;;;;;;;;5100153;27;20393;-75
2024/01/29 02:01:33;;;;;;;6.95;4.20;;;;;;;;;;5064162;28;20048;-75
2024/01/29 02:04:00;;;;;;;7.97;4.05;;;;;;;;;;5067328;28;20052;-75
2024/01/29 02:06:28;;;;;;;6.75;4.25;;;;;;;;;;5082765;28;20101;-75
2024/01/29 02:08:54;;;;;;;6.63;3.70;;;;;;;;;;5089101;28;20048;-75
2024/01/29 02:11:21;;;;;;;8.45;4.07;;;;;;;;;;5095478;28;20411;-75
2024/01/29 02:13:47;;;;;;;5.85;3.65;;;;;;;;;;5097402;28;20040;-75
2024/01/29 02:16:14;;;;;;;7.75;4.03;;;;;;;;;;5095178;28;20128;-75
2024/01/29 02:18:40;;;;;;;5.55;3.67;;;;;;;;;;5078920;28;20048;-74
2024/01/29 02:21:07;;;;;;;7.68;4.03;;;;;;;;;;5085358;28;20044;-75
2024/01/29 02:23:33;;;;;;;7.68;4.10;;;;;;;;;;5089850;28;20047;-75
2024/01/29 02:25:59;;;;;;;7.53;3.75;;;;;;;;;;5087084;28;20485;-75
2024/01/29 02:28:27;;;;;;;7.15;4.20;;;;;;;;;;5076678;28;20461;-75
2024/01/29 02:30:54;;;;;;;6.03;4.13;;;;;;;;;;5077810;28;20588;-75
2024/01/29 02:33:21;;;;;;;10.43;3.92;;;;;;;;;;5080686;28;20574;-74
2024/01/29 02:35:48;;;;;;;6.60;4.07;;;;;;;;;;5078921;28;20051;-75
2024/01/29 02:38:14;;;;;;;9.43;4.22;;;;;;;;;;5083047;28;20048;-74
2024/01/29 02:40:41;;;;;;;7.38;3.33;;;;;;;;;;5081089;28;20094;-74
2024/01/29 02:43:07;;;;;;;9.30;3.80;;;;;;;;;;5099883;28;20043;-75
2024/01/29 02:45:34;;;;;;;9.95;4.25;;;;;;;;;;5100576;28;20047;-75
2024/01/29 02:48:00;;;;;;;8.73;4.45;;;;;;;;;;5096291;27;20056;-74
2024/01/29 02:50:29;;;;;;;9.02;4.55;;;;;;;;;;5082541;28;20096;-75
2024/01/29 02:52:55;;;;;;;6.78;4.30;;;;;;;;;;5104073;27;20049;-74
2024/01/29 02:55:23;;;;;;;8.32;4.25;;;;;;;;;;5081203;28;20126;-75
2024/01/29 02:57:49;;;;;;;11.68;4.30;;;;;;;;;;5081432;28;20056;-74
2024/01/29 03:00:16;;;;;;;8.48;4.32;;;;;;;;;;5069655;28;20454;-74
2024/01/29 03:02:42;;;;;;;7.40;3.92;;;;;;;;;;5089639;27;20044;-75
2024/01/29 03:05:08;;;;;;;6.95;4.13;;;;;;;;;;5084906;28;20052;-75
2024/01/29 03:07:35;;;;;;;6.65;4.32;;;;;;;;;;5103651;27;20507;-74
2024/01/29 03:10:01;;;;;;;6.45;3.80;;;;;;;;;;5093398;28;20101;-74
2024/01/29 03:12:28;;;;;;;6.05;4.03;;;;;;;;;;5105895;28;20157;-75
2024/01/29 03:14:54;;;;;;;9.32;4.28;;;;;;;;;;5081378;28;20066;-75
2024/01/29 03:17:21;;;;;;;7.72;4.25;;;;;;;;;;5061538;28;20084;-75
2024/01/29 03:19:47;;;;;;;8.30;4.40;;;;;;;;;;5057266;28;20105;-74
2024/01/29 03:22:14;;;;;;;8.02;4.20;;;;;;;;;;5064434;28;20062;-75
2024/01/29 03:24:40;;;;;;;5.80;4.00;;;;;;;;;;5070407;28;20076;-74
2024/01/29 03:27:07;;;;;;;7.40;4.47;;;;;;;;;;5087275;28;20047;-73
2024/01/29 03:29:33;;;;;;;8.18;4.40;;;;;;;;;;5058921;28;20041;-74
2024/01/29 03:32:00;;;;;;;7.05;4.38;;;;;;;;;;5057361;28;20224;-74
2024/01/29 03:34:26;;;;;;;7.72;4.20;;;;;;;;;;5081595;28;20685;-75
2024/01/29 03:36:53;;;;;;;9.25;4.18;;;;;;;;;;5082280;28;20044;-75
2024/01/29 03:39:19;;;;;;;7.88;3.95;;;;;;;;;;5081006;28;20480;-74
2024/01/29 03:41:46;;;;;;;8.65;4.55;;;;;;;;;;5086504;28;20680;-74
2024/01/29 03:44:14;;;;;;;8.88;4.03;;;;;;;;;;5068549;28;20040;-74
2024/01/29 03:46:40;;;;;;;6.25;4.30;;;;;;;;;;5073762;28;20066;-75
2024/01/29 03:49:07;;;;;;;5.60;3.78;;;;;;;;;;5082685;28;20043;-74
2024/01/29 03:51:33;;;;;;;7.15;4.10;;;;;;;;;;5105526;28;20127;-74
2024/01/29 03:54:00;;;;;;;6.95;4.10;;;;;;;;;;5088259;28;20207;-74
2024/01/29 03:56:26;;;;;;;6.15;3.80;;;;;;;;;;5076713;28;20863;-74
2024/01/29 03:58:53;;;;;;;5.20;3.83;;;;;;;;;;5058819;28;20075;-74
2024/01/29 04:01:26;;;;;;;6.47;4.05;;;;;;;;;;5069768;28;20113;-74
2024/01/29 04:03:53;;;;;;;7.07;4.40;;;;;;;;;;5054624;28;20071;-74
2024/01/29 04:06:20;;;;;;;6.05;3.85;;;;;;;;;;5072307;28;20049;-75
2024/01/29 04:08:47;;;;;;;8.18;4.38;;;;;;;;;;5101096;28;20044;-75
2024/01/29 04:11:13;;;;;;;5.20;3.53;;;;;;;;;;5088617;28;20589;-75
2024/01/29 04:13:39;;;;;;;6.70;4.18;;;;;;;;;;5089624;28;20684;-75
2024/01/29 04:16:10;;;;;;;7.40;4.10;;;;;;;;;;5085417;28;20051;-74
2024/01/29 04:18:40;;;;;;;7.32;4.15;;;;;;;;;;5092483;28;20040;-74
2024/01/29 04:21:07;;;;;;;7.10;3.70;;;;;;;;;;5084493;28;20122;-75
2024/01/29 04:23:36;;;;;;;6.97;4.00;;;;;;;;;;5062213;28;20080;-74
2024/01/29 04:26:03;;;;;;;6.68;4.53;;;;;;;;;;5079588;28;20150;-75
2024/01/29 04:28:29;;;;;;;11.88;4.53;;;;;;;;;;5079562;28;20040;-74
2024/01/29 04:30:56;;;;;;;6.32;3.97;;;;;;;;;;5078437;28;20051;-75
2024/01/29 04:33:23;;;;;;;8.10;4.30;;;;;;;;;;5079296;28;20048;-74
2024/01/29 04:35:50;;;;;;;7.25;3.95;;;;;;;;;;5095511;28;20079;-75
2024/01/29 04:38:16;;;;;;;7.72;4.32;;;;;;;;;;5084564;28;20050;-75
2024/01/29 04:40:43;;;;;;;6.75;3.75;;;;;;;;;;5068786;28;20040;-76
2024/01/29 04:43:09;;;;;;;8.82;4.53;;;;;;;;;;5093857;28;20117;-75
2024/01/29 04:45:36;;;;;;;7.63;4.22;;;;;;;;;;5084689;28;20079;-75
2024/01/29 04:48:03;;;;;;;6.28;3.80;;;;;;;;;;5078170;28;20125;-75
2024/01/29 04:50:29;;;;;;;8.07;3.92;;;;;;;;;;5093565;28;20678;-75
2024/01/29 04:52:55;;;;;;;7.40;3.90;;;;;;;;;;5094643;28;20059;-75
2024/01/29 04:55:22;;;;;;;7.13;4.38;;;;;;;;;;5087796;28;20144;-75
2024/01/29 04:57:49;;;;;;;9.35;4.78;;;;;;;;;;5087516;28;20054;-75
2024/01/29 05:00:15;;;;;;;8.40;4.20;;;;;;;;;;5094264;28;20698;-75
2024/01/29 05:02:42;;;;;;;7.70;4.65;;;;;;;;;;5077410;28;20040;-76
2024/01/29 05:05:08;;;;;;;5.47;3.55;;;;;;;;;;5067219;28;20143;-76
2024/01/29 05:07:35;;;;;;;11.00;4.15;;;;;;;;;;5085055;28;20040;-75
2024/01/29 05:10:01;;;;;;;6.43;4.10;;;;;;;;;;5077532;28;20052;-75
2024/01/29 05:12:28;;;;;;;7.63;4.22;;;;;;;;;;5077097;28;20056;-75
2024/01/29 05:14:55;;;;;;;8.68;3.92;;;;;;;;;;5088300;28;20048;-75
2024/01/29 05:17:21;;;;;;;7.95;3.92;;;;;;;;;;5075128;28;20048;-74
2024/01/29 05:19:48;;;;;;;5.95;4.22;;;;;;;;;;5077484;28;20075;-75
2024/01/29 05:22:14;;;;;;;8.20;4.43;;;;;;;;;;5061437;28;20136;-75
2024/01/29 05:24:41;;;;;;;5.40;3.83;;;;;;;;;;5067582;28;21495;-75
2024/01/29 05:27:07;;;;;;;7.18;4.03;;;;;;;;;;5095995;28;20052;-74
2024/01/29 05:29:34;;;;;;;7.47;4.03;;;;;;;;;;5085837;28;20075;-74
2024/01/29 05:32:00;;;;;;;7.30;4.18;;;;;;;;;;5096039;28;20047;-75
2024/01/29 05:34:27;;;;;;;7.32;4.20;;;;;;;;;;5093114;28;20130;-74
2024/01/29 05:36:53;;;;;;;5.95;4.10;;;;;;;;;;5104041;28;20071;-74
2024/01/29 05:39:20;;;;;;;6.80;4.57;;;;;;;;;;5093949;28;20050;-74
2024/01/29 05:41:46;;;;;;;10.35;3.95;;;;;;;;;;5107663;28;20071;-75
2024/01/29 05:44:13;;;;;;;7.13;4.22;;;;;;;;;;5105035;28;20048;-74
2024/01/29 05:46:39;;;;;;;7.72;4.15;;;;;;;;;;5089198;28;21075;-74
2024/01/29 05:49:05;;;;;;;8.90;4.97;;;;;;;;;;5093103;28;20113;-75
2024/01/29 05:51:32;;;;;;;8.20;4.00;;;;;;;;;;5071073;28;20047;-74
2024/01/29 05:54:00;;;;;;;7.85;4.45;;;;;;;;;;5071478;28;20052;-74
2024/01/29 05:56:26;;;;;;;10.80;4.15;;;;;;;;;;5105695;27;20101;-73
2024/01/29 05:58:53;;;;;;;6.32;4.05;;;;;;;;;;5089730;28;20052;-74
2024/01/29 06:01:19;;;;;;;8.02;4.43;;;;;;;;;;5089209;28;20534;-74
2024/01/29 06:03:46;;;;;;;9.95;4.38;;;;;;;;;;5068773;28;20076;-75
2024/01/29 06:06:12;;;;;;;7.72;5.13;;;;;;;;;;5096113;28;20567;-74
2024/01/29 06:08:38;;;;;;;9.35;4.85;;;;;;;;;;5084734;28;20429;-74
2024/01/29 06:11:05;;;;;;;7.60;4.85;;;;;;;;;;5077117;28;20079;-74
2024/01/29 06:13:31;;;;;;;9.00;4.53;;;;;;;;;;5100007;28;20102;-74
2024/01/29 06:15:58;;;;;;;7.35;4.30;;;;;;;;;;5090545;28;20079;-74
2024/01/29 06:18:24;;;;;;;8.05;4.57;;;;;;;;;;5099185;28;20075;-74
2024/01/29 06:20:51;;;;;;;9.30;5.15;;;;;;;;;;5073011;28;20058;-74
2024/01/29 06:23:17;;;;;;;7.78;3.95;;;;;;;;;;5089792;28;20780;-74
2024/01/29 06:25:44;;;;;;;8.80;4.90;;;;;;;;;;5066086;28;20080;-74
2024/01/29 06:28:10;;;;;;;9.95;5.97;;;;;;;;;;5065857;28;20098;-75
2024/01/29 06:30:37;;;;;;;10.60;5.63;;;;;;;;;;5074321;28;20629;-74
2024/01/29 06:33:04;;;;;;;9.38;5.90;;;;;;;;;;5082153;28;20044;-74
2024/01/29 06:35:30;;;;;;;9.30;5.95;;;;;;;;;;5087019;28;20174;-74
2024/01/29 06:37:56;;;;;;;8.98;5.57;;;;;;;;;;5088209;28;20732;-74
2024/01/29 06:40:27;;;;;;;8.85;5.47;;;;;;;;;;5097992;28;20112;-74
2024/01/29 06:42:57;;;;;;;8.93;5.47;;;;;;;;;;5096789;28;20039;-74
2024/01/29 06:45:24;;;;;;;7.93;5.05;;;;;;;;;;5090465;28;20044;-80
2024/01/29 06:47:50;;;;;;;9.27;5.10;;;;;;;;;;5085588;28;20040;-74
2024/01/29 06:50:17;;;;;;;8.82;5.10;;;;;;;;;;5071313;28;20071;-75
2024/01/29 06:52:43;;;;;;;11.30;5.45;;;;;;;;;;5100921;28;20043;-75
2024/01/29 06:55:10;;;;;;;8.70;5.10;;;;;;;;;;5073454;28;20141;-74
2024/01/29 06:57:36;;;;;;;7.03;4.82;;;;;;;;;;5061140;28;20397;-74
2024/01/29 07:00:03;;;;;;;6.53;5.00;;;;;;;;;;5067693;28;20060;-74
2024/01/29 07:02:30;;;;;;;10.70;4.88;;;;;;;;;;5061213;28;20384;-74
2024/01/29 07:04:56;;;;;;;9.75;5.28;;;;;;;;;;5092513;28;20050;-74
2024/01/29 07:07:23;;;;;;;7.22;4.75;;;;;;;;;;5068427;28;20044;-74
2024/01/29 07:09:53;;;;;;;7.20;4.78;;;;;;;;;;5087115;28;20529;-74
2024/01/29 07:12:19;;;;;;;9.80;5.05;;;;;;;;;;5065362;28;20514;-74
2024/01/29 07:14:46;;;;;;;9.18;5.78;;;;;;;;;;5083869;28;20056;-74
2024/01/29 07:17:12;;;;;;;12.13;7.15;;;;;;;;;;5068842;28;20383;-74
2024/01/29 07:19:39;;;;;;;12.30;7.90;;;;;;;;;;5061571;28;20167;-74
2024/01/29 07:22:08;;;;;;;12.82;7.47;;;;;;;;;;5071375;28;20032;-75
2024/01/29 07:24:35;;;;;;;10.48;7.22;;;;;;;;;;5048821;28;20048;-76
2024/01/29 07:27:01;;;;;;;9.40;6.35;;;;;;;;;;5065729;28;20052;-74
2024/01/29 07:29:29;;;;;;;11.95;6.65;;;;;;;;;;5079281;28;20127;-75
2024/01/29 07:31:56;;;;;;;11.68;6.35;;;;;;;;;;5076290;28;20051;-74
2024/01/29 07:34:23;;;;;;;11.10;6.40;;;;;;;;;;5091662;28;20105;-74
2024/01/29 07:36:49;;;;;;;9.98;5.72;;;;;;;;;;5070024;28;20074;-74
2024/01/29 07:39:16;;;;;;;11.27;6.38;;;;;;;;;;5073894;28;20135;-74
2024/01/29 07:41:43;;;;;;;10.15;5.80;;;;;;;;;;5090818;28;20052;-76
2024/01/29 07:44:09;;;;;;;11.35;6.25;;;;;;;;;;5082903;28;20129;-74
2024/01/29 07:46:35;;;;;;;9.85;6.30;;;;;;;;;;5073203;28;20081;-74
2024/01/29 07:49:03;;;;;;;10.93;5.82;;;;;;;;;;5061764;28;20048;-74
2024/01/29 07:51:30;;;;;;;10.45;5.72;;;;;;;;;;5084793;28;20046;-74
2024/01/29 07:53:57;;;;;;;9.88;6.00;;;;;;;;;;5076928;28;20142;-74
2024/01/29 07:56:23;;;;;;;7.95;5.32;;;;;;;;;;5069224;28;20154;-74
2024/01/29 07:58:49;;;;;;;8.77;4.93;;;;;;;;;;5083766;28;20056;-75
2024/01/29 08:01:16;;;;;;;10.43;5.45;;;;;;;;;;5084484;28;20036;-74
2024/01/29 08:03:43;;;;;;;7.18;4.97;;;;;;;;;;5065283;28;20052;-75
2024/01/29 08:06:11;;;;;;;;;;;;;;;;;;5069382;28;20040;-74
2024/01/29 08:08:37;;;;;;;8.52;4.88;;;;;;;;;;5064962;28;19920;-75
2024/01/29 08:11:04;;;;;;;10.23;5.20;;;;;;;;;;5076070;28;21572;-74
2024/01/29 08:13:30;;;;;;;7.18;4.75;;;;;;;;;;5068972;28;20080;-75
2024/01/29 08:15:58;;;;;;;9.90;5.38;;;;;;;;;;5069567;28;20386;-74
2024/01/29 08:18:25;;;;;;;;;;;;;;;;;;5074040;28;20040;-76
2024/01/29 08:20:52;;;;;;;8.60;5.80;;;;;;;;;;5077491;28;19975;-75
2024/01/29 08:23:19;;;;;;;8.25;4.95;;;;;;;;;;5063003;28;20512;-76
2024/01/29 08:25:45;;;;;;;8.35;5.18;;;;;;;;;;5068466;28;20559;-75
2024/01/29 08:28:12;;;;;;;9.95;5.60;;;;;;;;;;5064819;28;20146;-75
2024/01/29 08:30:38;;;;;;;8.10;5.35;;;;;;;;;;5073606;28;20135;-76
2024/01/29 08:33:05;;;;;;;10.27;5.55;;;;;;;;;;5103801;27;20052;-76
2024/01/29 08:35:31;;;;;;;8.98;5.47;;;;;;;;;;5081562;28;20060;-75
2024/01/29 08:37:59;;;;;;;8.02;5.10;;;;;;;;;;5064373;28;20040;-76
2024/01/29 08:40:27;;;;;;;7.75;5.35;;;;;;;;;;5079868;28;20559;-76
2024/01/29 08:42:54;;;;;;;11.00;5.40;;;;;;;;;;5085066;28;20137;-75
2024/01/29 08:45:20;;;;;;;8.63;5.05;;;;;;;;;;5090286;28;20067;-75
2024/01/29 08:47:47;;;;;;;9.13;5.47;;;;;;;;;;5085729;28;20076;-77
2024/01/29 08:50:13;;;;;;;10.63;5.32;;;;;;;;;;5094532;28;20059;-74
2024/01/29 08:52:40;;;;;;;10.70;5.80;;;;;;;;;;5073585;28;20059;-74
2024/01/29 08:55:07;;;;;;;10.18;5.28;;;;;;;;;;5080733;28;20052;-72
2024/01/29 08:57:33;;;;;;;9.65;5.60;;;;;;;;;;5082383;28;20070;-70
2024/01/29 09:00:00;;;;;;;8.43;5.43;;;;;;;;;;5064025;28;20048;-69
2024/01/29 09:02:27;;;;;;;7.53;5.15;;;;;;;;;;5083806;28;20074;-69
2024/01/29 09:04:54;;;;;;;9.02;5.75;;;;;;;;;;5054359;28;20056;-70
2024/01/29 09:07:20;;;;;;;9.27;6.40;;;;;;;;;;5083481;28;20055;-70
2024/01/29 09:09:47;;;;;;;9.38;5.45;;;;;;;;;;5067791;28;20052;-70
2024/01/29 09:12:13;;;;;;;10.20;5.88;;;;;;;;;;5068565;28;20064;-71
2024/01/29 09:14:40;;;;;;;8.70;5.82;;;;;;;;;;5084806;28;20724;-70
2024/01/29 09:17:06;;;;;;;10.32;5.65;;;;;;;;;;5077598;28;20053;-70
2024/01/29 09:19:33;;;;;;;10.25;6.50;;;;;;;;;;5079119;28;20486;-71
2024/01/29 09:21:59;;;;;;;10.60;6.38;;;;;;;;;;5063181;28;20059;-69
2024/01/29 09:24:26;;;;;;;9.57;5.60;;;;;;;;;;5085463;28;20044;-70
2024/01/29 09:26:55;;;;;;;9.35;6.25;;;;;;;;;;5077936;28;20446;-69
2024/01/29 09:29:21;;;;;;;8.88;5.88;;;;;;;;;;5091378;28;20121;-69
2024/01/29 09:31:48;;;;;;;9.75;6.10;;;;;;;;;;5078031;28;20098;-70
2024/01/29 09:34:15;;;;;;;10.52;6.03;;;;;;;;;;5076182;28;20047;-70
2024/01/29 09:36:42;;;;;;;9.18;6.60;;;;;;;;;;5086746;28;20044;-72
2024/01/29 09:39:09;;;;;;;11.43;6.03;;;;;;;;;;5069019;28;20041;-70
2024/01/29 09:41:36;;;;;;;10.10;5.90;;;;;;;;;;5082805;28;20040;-70
2024/01/29 09:44:06;;;;;;;22.55;6.25;;;;;;;;;;5075404;28;20604;-71
2024/01/29 09:46:39;;;;;;;10.55;6.05;;;;;;;;;;5083705;28;20133;-73
2024/01/29 09:49:06;;;;;;;11.65;6.45;;;;;;;;;;5083406;28;20052;-69
2024/01/29 09:51:33;;;;;;;10.57;6.63;;;;;;;;;;5060369;28;20063;-69
2024/01/29 09:54:01;;;;;;;9.23;5.82;;;;;;;;;;5084621;28;20123;-70
2024/01/29 09:56:28;;;;;;;10.30;6.10;;;;;;;;;;5074582;28;20104;-70
2024/01/29 09:58:54;;;;;;;11.60;6.13;;;;;;;;;;5079519;28;20075;-69
2024/01/29 10:01:23;;;;;;;9.43;6.38;;;;;;;;;;5074508;28;20052;-70
2024/01/29 10:03:50;;;;;;;;;;;;;;;;;;5074717;28;20080;-72
2024/01/29 10:06:16;;;;;;;11.23;6.82;;;;;;;;;;5096045;28;19924;-70
2024/01/29 10:08:43;;;;;;;10.27;6.32;;;;;;;;;;5070539;28;20049;-70
2024/01/29 10:11:10;;;;;;;9.73;6.35;;;;;;;;;;5086005;28;20471;-69
2024/01/29 10:13:37;;;;;;;8.95;6.35;;;;;;;;;;5072169;28;20435;-72
2024/01/29 10:16:03;;;;;;;9.35;6.03;;;;;;;;;;5062839;28;20044;-69
2024/01/29 10:18:30;;;;;;;11.70;6.68;;;;;;;;;;5080654;28;20105;-72
2024/01/29 10:21:04;;;;;;;9.00;6.32;;;;;;;;;;5073262;28;20059;-69
2024/01/29 10:23:30;;;;;;;7.90;6.03;;;;;;;;;;5078989;28;20044;-69
2024/01/29 10:26:00;;;;;;;10.05;6.68;;;;;;;;;;5061798;28;20736;-72
2024/01/29 10:28:27;;;;;;;10.38;6.40;;;;;;;;;;5081248;28;20759;-69
2024/01/29 10:30:54;;;;;;;11.63;7.03;;;;;;;;;;5076175;28;20048;-69
2024/01/29 10:33:21;;;;;;;9.38;6.40;;;;;;;;;;5063774;28;20045;-69
2024/01/29 10:35:51;;;;;;;11.80;7.70;;;;;;;;;;5083275;28;20040;-70
2024/01/29 10:38:20;;;;;;;11.88;6.75;;;;;;;;;;5078063;28;20040;-70
2024/01/29 10:40:47;;;;;;;16.20;9.23;;;;;;;;;;5085446;28;20117;-70
2024/01/29 10:43:18;;;;;;;10.00;7.10;;;;;;;;;;5077710;28;20048;-71
2024/01/29 10:45:51;;;;;;;10.25;6.80;;;;;;;;;;5089370;28;20044;-69
2024/01/29 10:48:22;;;;;;;10.35;7.25;;;;;;;;;;5082535;28;20413;-69
2024/01/29 10:50:50;;;;;;;11.80;7.20;;;;;;;;;;5084078;28;20162;-70
2024/01/29 10:53:17;;;;;;;10.97;6.77;;;;;;;;;;5078531;28;20517;-71
2024/01/29 10:55:44;;;;;;;12.40;7.00;;;;;;;;;;5079138;28;20093;-69
2024/01/29 10:58:14;;;;;;;10.70;6.90;;;;;;;;;;5090848;28;20456;-70
2024/01/29 11:00:42;;;;;;;9.93;7.10;;;;;;;;;;5053940;28;20121;-71
2024/01/29 11:03:09;;;;;;;10.60;7.20;;;;;;;;;;5085170;28;20058;-70
2024/01/29 11:05:36;;;;;;;10.48;6.80;;;;;;;;;;5082740;28;20126;-69
2024/01/29 11:08:04;;;;;;;11.50;6.95;;;;;;;;;;5089382;28;20048;-69
2024/01/29 11:10:32;;;;;;;14.50;7.68;;;;;;;;;;5080762;28;20090;-69
2024/01/29 11:12:59;;;;;;;10.48;7.53;;;;;;;;;;5074193;28;20048;-69
2024/01/29 11:15:26;;;;;;;11.50;7.73;;;;;;;;;;5068264;28;20048;-69
2024/01/29 11:17:55;;;;;;;10.20;7.05;;;;;;;;;;5081835;28;20044;-70
2024/01/29 11:20:22;;;;;;;11.45;7.40;;;;;;;;;;5083097;28;20054;-71
2024/01/29 11:22:50;;;;;;;12.57;7.93;;;;;;;;;;5086302;28;20091;-70
2024/01/29 11:25:17;;;;;;;;;;;;;;;;;;5069651;28;20056;-70
2024/01/29 11:27:44;;;;;;;10.02;6.90;;;;;;;;;;5076255;28;20044;-71
2024/01/29 11:30:20;;;;;;;10.07;7.55;;;;;;;;;;5078961;28;20048;-69
2024/01/29 11:32:46;;;;;;;11.23;7.72;;;;;;;;;;5080917;28;20051;-72
2024/01/29 11:35:14;;;;;;;11.60;7.53;;;;;;;;;;5075946;28;20052;-70
2024/01/29 11:37:41;;;;;;;14.13;7.60;;;;;;;;;;5077936;28;20093;-70
2024/01/29 11:40:28;;;;;;;12.88;8.30;;;;;;;;;;5083341;28;20739;-69
2024/01/29 11:42:54;;;;;;;13.43;7.50;;;;;;;;;;5085797;28;20050;-70
2024/01/29 11:45:22;;;;;;;11.52;7.57;;;;;;;;;;5088648;28;20051;-69
2024/01/29 11:47:49;;;;;;;12.85;7.78;;;;;;;;;;5061875;28;20131;-70
2024/01/29 11:50:15;;;;;;;13.07;7.78;;;;;;;;;;5068057;28;20109;-71
2024/01/29 11:52:42;;;;;;;14.77;8.55;;;;;;;;;;5064665;28;20156;-70
2024/01/29 11:55:09;;;;;;;13.40;8.32;;;;;;;;;;5098390;28;21109;-70
2024/01/29 11:57:37;;;;;;;11.68;7.38;;;;;;;;;;5084826;28;20040;-70
2024/01/29 12:00:07;;;;;;;11.63;7.78;;;;;;;;;;5053595;28;20490;-72
2024/01/29 12:02:34;;;;;;;15.10;8.18;;;;;;;;;;5077425;28;20040;-69
2024/01/29 12:05:00;;;;;;;11.48;7.40;;;;;;;;;;5058515;28;20039;-72
2024/01/29 12:07:27;;;;;;;13.55;7.45;;;;;;;;;;5063736;28;20059;-71
2024/01/29 12:09:54;;;;;;;11.43;7.50;;;;;;;;;;5076714;28;20416;-70
2024/01/29 12:12:20;;;;;;;12.88;8.48;;;;;;;;;;5082574;28;20052;-73
2024/01/29 12:14:49;;;;;;;;;;;;;;;;;;5082367;28;20056;-71
2024/01/29 12:17:16;;;;;;;12.38;7.90;;;;;;;;;;5074156;28;20602;-71
2024/01/29 12:19:43;;;;;;;12.38;7.68;;;;;;;;;;5057686;28;20063;-71
2024/01/29 12:22:12;;;;;;;13.38;8.43;;;;;;;;;;5055287;28;20418;-72
2024/01/29 12:24:39;;;;;;;15.75;8.63;;;;;;;;;;5084782;28;20055;-70
2024/01/29 12:27:06;;;;;;;11.98;7.38;;;;;;;;;;5082814;28;20487;-72
2024/01/29 12:29:35;;;;;;;12.02;8.00;;;;;;;;;;5062597;28;20044;-71
2024/01/29 12:32:14;;;;;;;11.15;7.57;;;;;;;;;;5085668;28;20490;-72
2024/01/29 12:34:47;;;;;;;13.40;8.27;;;;;;;;;;5060546;28;20127;-70
2024/01/29 12:37:18;;;;;;;16.58;8.50;;;;;;;;;;5079940;28;20051;-71
2024/01/29 12:39:54;;;;;;;12.15;8.27;;;;;;;;;;5073004;28;20459;-71
2024/01/29 12:42:22;;;;;;;10.90;8.13;;;;;;;;;;5082868;28;20043;-70
2024/01/29 12:44:50;;;;;;;13.52;8.52;;;;;;;;;;5071366;28;20049;-71
2024/01/29 12:47:18;;;;;;;11.60;8.00;;;;;;;;;;5067566;28;20044;-71
2024/01/29 12:49:45;;;;;;;10.50;7.83;;;;;;;;;;5078019;28;20765;-71
2024/01/29 12:52:12;;;;;;;13.37;8.13;;;;;;;;;;5079350;28;20048;-72
2024/01/29 12:54:38;;;;;;;11.25;8.07;;;;;;;;;;5080568;28;20048;-71
2024/01/29 12:57:06;;;;;;;10.98;8.65;;;;;;;;;;5079557;28;20083;-71
2024/01/29 12:59:32;;;;;;;12.50;8.23;;;;;;;;;;5083776;28;20052;-71
2024/01/29 13:02:00;;;;;;;15.55;8.13;;;;;;;;;;5079303;28;20091;-70
2024/01/29 13:04:26;;;;;;;11.55;8.45;;;;;;;;;;5065463;28;20649;-69
2024/01/29 13:06:53;;;;;;;11.38;8.38;;;;;;;;;;5079706;28;20156;-69
2024/01/29 13:09:20;;;;;;;12.52;9.38;;;;;;;;;;5077502;28;20528;-71
2024/01/29 13:11:47;;;;;;;13.13;10.10;;;;;;;;;;5076424;28;20044;-71
2024/01/29 13:14:14;;;;;;;11.65;7.57;;;;;;;;;;5082362;28;20044;-72
2024/01/29 13:16:41;;;;;;;9.40;7.65;;;;;;;;;;5083611;28;20048;-72
2024/01/29 13:19:07;;;;;;;11.82;7.95;;;;;;;;;;5084461;28;20044;-71
2024/01/29 13:21:34;;;;;;;13.30;8.77;;;;;;;;;;5080793;28;20052;-69
2024/01/29 13:24:01;;;;;;;13.77;7.93;;;;;;;;;;5087010;28;20051;-69
2024/01/29 13:26:29;;;;;;;11.30;8.38;;;;;;;;;;5063189;28;20048;-69
2024/01/29 13:28:55;;;;;;;11.65;8.30;;;;;;;;;;5087134;28;20056;-70
2024/01/29 13:31:22;;;;;;;10.23;7.15;;;;;;;;;;5080451;28;20051;-71
2024/01/29 13:33:49;;;;;;;10.60;8.30;;;;;;;;;;5080143;28;20052;-71
2024/01/29 13:36:16;;;;;;;12.07;8.48;;;;;;;;;;5083329;28;20534;-69
2024/01/29 13:38:46;;;;;;;11.80;8.88;;;;;;;;;;5081514;28;21476;-69
2024/01/29 13:41:12;;;;;;;11.30;7.78;;;;;;;;;;5080948;28;20052;-69
2024/01/29 13:43:38;;;;;;;14.15;7.75;;;;;;;;;;5078882;28;20044;-70
2024/01/29 13:46:05;;;;;;;12.85;10.05;;;;;;;;;;5081711;28;20089;-70
2024/01/29 13:48:31;;;;;;;15.20;8.57;;;;;;;;;;5074363;28;20134;-70
2024/01/29 13:50:58;;;;;;;11.25;8.05;;;;;;;;;;5081034;28;20058;-72
2024/01/29 13:53:25;;;;;;;15.63;8.60;;;;;;;;;;5085282;28;20053;-69
2024/01/29 13:55:51;;;;;;;10.98;7.95;;;;;;;;;;5065373;28;20559;-70
2024/01/29 13:58:17;;;;;;;12.43;8.23;;;;;;;;;;5082224;28;20048;-70
2024/01/29 14:00:44;;;;;;;10.52;7.85;;;;;;;;;;5081054;28;20142;-69
2024/01/29 14:03:12;;;;;;;11.57;8.40;;;;;;;;;;5080329;28;20069;-71
2024/01/29 14:05:38;;;;;;;10.85;7.18;;;;;;;;;;5086790;28;20039;-71
2024/01/29 14:08:05;;;;;;;13.40;8.68;;;;;;;;;;5077508;28;20052;-69
2024/01/29 14:10:35;;;;;;;12.82;8.75;;;;;;;;;;5068666;28;20044;-70
2024/01/29 14:13:03;;;;;;;11.88;8.35;;;;;;;;;;5074112;28;20048;-70
2024/01/29 14:15:29;;;;;;;12.30;9.25;;;;;;;;;;5084474;28;20067;-69
2024/01/29 14:17:56;;;;;;;15.10;8.52;;;;;;;;;;5078724;28;20063;-70
2024/01/29 14:20:23;;;;;;;12.02;9.40;;;;;;;;;;5072409;28;20130;-69
2024/01/29 14:22:55;;;;;;;12.07;8.88;;;;;;;;;;5086329;28;20059;-71
2024/01/29 14:25:22;;;;;;;17.23;9.55;;;;;;;;;;5067217;28;20060;-69
2024/01/29 14:27:49;;;;;;;12.93;7.85;;;;;;;;;;5076832;28;20068;-70
2024/01/29 14:30:15;;;;;;;15.32;8.77;;;;;;;;;;5080481;28;20521;-70
2024/01/29 14:32:42;;;;;;;13.52;8.85;;;;;;;;;;5084733;28;20043;-72
2024/01/29 14:35:10;;;;;;;11.13;8.20;;;;;;;;;;5098453;28;20118;-69
2024/01/29 14:37:37;;;;;;;12.07;8.48;;;;;;;;;;5061795;28;20095;-69